createdAt,value
2023-10-03T00:02:55.398Z,8.68
2023-10-03T00:06:58.376Z,9.18
2023-10-03T00:10:59.902Z,9.48
2023-10-03T00:15:01.407Z,9.13
2023-10-03T00:19:03.154Z,9.75
2023-10-03T00:23:06.327Z,10.82
2023-10-03T00:27:07.849Z,9.15
2023-10-03T00:31:09.446Z,9.00
2023-10-03T00:35:11.132Z,9.20
2023-10-03T00:39:13.975Z,8.95
2023-10-03T00:43:15.535Z,9.25
2023-10-03T00:47:17.099Z,9.38
2023-10-03T00:51:18.850Z,9.15
2023-10-03T00:55:22.512Z,8.70
2023-10-03T00:59:24.346Z,8.45
2023-10-03T01:03:27.364Z,8.25
2023-10-03T01:11:31.764Z,8.52
2023-10-03T01:15:33.312Z,9.00
2023-10-03T01:19:34.833Z,8.88
2023-10-03T01:23:37.802Z,8.10
2023-10-03T01:27:39.511Z,8.02
2023-10-03T01:31:41.338Z,8.65
2023-10-03T01:35:42.863Z,8.95
2023-10-03T01:39:45.759Z,8.20
2023-10-03T01:43:47.260Z,8.90
2023-10-03T01:47:49.242Z,8.95
2023-10-03T01:51:50.779Z,8.75
2023-10-03T01:55:53.666Z,9.73
2023-10-03T01:59:55.279Z,9.88
2023-10-03T02:03:56.960Z,10.27
2023-10-03T02:07:58.623Z,8.73
2023-10-03T02:12:01.488Z,8.55
2023-10-03T02:16:03.141Z,8.65
2023-10-03T02:20:05.616Z,9.52
2023-10-03T02:24:07.995Z,9.00
2023-10-03T02:28:10.928Z,9.13
2023-10-03T02:32:12.476Z,9.10
2023-10-03T02:36:13.992Z,8.68
2023-10-03T02:40:15.682Z,9.82
2023-10-03T02:44:18.652Z,9.23
2023-10-03T02:48:20.486Z,9.13
2023-10-03T02:52:22.119Z,9.40
2023-10-03T02:56:23.815Z,9.57
2023-10-03T03:00:26.877Z,9.50
2023-10-03T03:04:28.520Z,10.15
2023-10-03T03:08:30.261Z,9.30
2023-10-03T03:12:31.874Z,10.20
2023-10-03T03:16:34.726Z,9.38
2023-10-03T03:20:36.286Z,9.43
2023-10-03T03:24:37.937Z,8.63
2023-10-03T03:28:40.312Z,8.43
2023-10-03T03:32:43.354Z,8.52
2023-10-03T03:40:46.502Z,8.88
2023-10-03T03:44:48.073Z,8.02
2023-10-03T03:48:50.936Z,8.68
2023-10-03T03:52:52.461Z,9.43
2023-10-03T03:56:54.020Z,9.27
2023-10-03T04:00:55.619Z,9.45
2023-10-03T04:04:58.663Z,8.68
2023-10-03T04:09:07.108Z,11.73
2023-10-03T04:13:09.783Z,10.52
2023-10-03T04:17:11.298Z,9.40
2023-10-03T04:21:14.198Z,10.27
2023-10-03T04:25:15.990Z,11.63
2023-10-03T04:29:17.499Z,10.13
2023-10-03T04:33:19.204Z,10.20
2023-10-03T04:37:22.280Z,12.02
2023-10-03T04:41:23.841Z,10.90
2023-10-03T04:45:25.837Z,9.73
2023-10-03T04:49:27.368Z,10.30
2023-10-03T04:53:30.824Z,10.63
2023-10-03T04:57:32.365Z,9.85
2023-10-03T05:01:33.888Z,10.05
2023-10-03T05:05:35.574Z,10.05
2023-10-03T05:09:38.481Z,9.63
2023-10-03T05:13:40.192Z,11.27
2023-10-03T05:17:42.083Z,12.60
2023-10-03T05:21:43.657Z,10.75
2023-10-03T05:25:46.520Z,9.95
2023-10-03T05:29:48.056Z,10.90
2023-10-03T05:33:49.699Z,10.95
2023-10-03T05:37:51.272Z,14.50
2023-10-03T05:41:54.217Z,16.13
2023-10-03T05:45:55.758Z,23.20
2023-10-03T05:49:57.377Z,18.38
2023-10-03T05:53:58.948Z,14.88
2023-10-03T05:58:03.649Z,14.50
2023-10-03T06:02:05.574Z,14.38
2023-10-03T06:06:07.165Z,14.73
2023-10-03T06:10:10.123Z,15.35
2023-10-03T06:14:13.103Z,13.38
2023-10-03T06:18:14.707Z,13.43
2023-10-03T06:22:16.246Z,13.05
2023-10-03T06:26:17.796Z,13.25
2023-10-03T06:30:20.751Z,12.55
2023-10-03T06:34:22.274Z,13.40
2023-10-03T06:38:23.890Z,13.23
2023-10-03T06:42:25.504Z,12.88
2023-10-03T06:46:28.419Z,17.15
2023-10-03T06:50:30.097Z,15.25
2023-10-03T06:54:31.798Z,12.70
2023-10-03T06:58:33.426Z,10.90
2023-10-03T07:02:36.385Z,9.85
2023-10-03T07:06:38.100Z,9.60
2023-10-03T07:10:39.753Z,10.02
2023-10-03T07:14:41.412Z,9.63
2023-10-03T07:18:44.450Z,11.55
2023-10-03T07:22:46.085Z,10.95
2023-10-03T07:26:47.682Z,10.98
2023-10-03T07:30:49.299Z,12.18
2023-10-03T07:34:52.209Z,11.70
2023-10-03T07:42:55.183Z,11.45
2023-10-03T07:46:56.896Z,9.82
2023-10-03T07:50:59.858Z,12.02
2023-10-03T07:59:05.227Z,12.02
2023-10-03T08:03:07.733Z,11.48
2023-10-03T08:07:10.758Z,11.93
2023-10-03T08:15:14.585Z,10.98
2023-10-03T08:19:17.150Z,10.63
2023-10-03T08:23:20.048Z,11.40
2023-10-03T08:27:21.563Z,10.75
2023-10-03T08:31:23.103Z,11.48
2023-10-03T08:35:24.971Z,10.38
2023-10-03T08:39:28.339Z,12.60
2023-10-03T08:43:30.480Z,11.00
2023-10-03T08:47:32.362Z,11.70
2023-10-03T08:51:34.141Z,10.95
2023-10-03T08:55:37.040Z,11.48
2023-10-03T09:03:40.460Z,10.77
2023-10-03T09:07:45.260Z,10.97
2023-10-03T09:11:48.200Z,11.38
2023-10-03T09:15:50.601Z,12.43
2023-10-03T09:19:52.142Z,10.93
2023-10-03T09:23:54.945Z,11.10
2023-10-03T09:32:06.899Z,8.10
2023-10-03T09:36:09.556Z,11.45
2023-10-03T09:40:11.808Z,10.80
2023-10-03T09:44:15.903Z,11.13
2023-10-03T09:48:18.068Z,11.52
2023-10-03T09:52:19.730Z,10.00
2023-10-03T09:56:21.552Z,11.20
2023-10-03T10:00:25.189Z,10.50
2023-10-03T10:04:28.747Z,9.95
2023-10-03T10:08:41.213Z,10.75
2023-10-03T10:13:07.279Z,10.98
2023-10-03T10:17:19.104Z,10.57
2023-10-03T10:21:24.203Z,9.73
2023-10-03T10:25:25.911Z,9.68
2023-10-03T10:29:27.540Z,10.35
2023-10-03T10:33:30.536Z,11.15
2023-10-03T10:37:49.898Z,10.80
2023-10-03T10:42:09.105Z,10.77
2023-10-03T10:46:32.539Z,11.05
2023-10-03T10:51:08.778Z,10.60
2023-10-03T10:55:11.076Z,11.20
2023-10-03T10:59:12.607Z,10.55
2023-10-03T11:03:21.275Z,11.15
2023-10-03T11:07:25.381Z,9.95
2023-10-03T11:11:36.641Z,10.88
2023-10-03T11:15:38.216Z,10.55
2023-10-03T11:19:39.897Z,12.55
2023-10-03T11:24:09.809Z,10.32
2023-10-03T11:28:11.385Z,11.10
2023-10-03T11:32:21.295Z,11.00
2023-10-03T11:36:22.815Z,9.60
2023-10-03T11:40:30.175Z,10.52
2023-10-03T11:44:31.984Z,10.52
2023-10-03T11:48:33.582Z,8.15
2023-10-03T11:52:35.554Z,9.38
2023-10-03T11:56:43.681Z,12.25
2023-10-03T12:00:45.714Z,11.00
2023-10-03T12:04:47.820Z,8.93
2023-10-03T12:08:49.406Z,9.52
2023-10-03T12:12:53.118Z,9.07
2023-10-03T12:16:54.758Z,8.98
2023-10-03T12:20:56.276Z,8.88
2023-10-03T12:24:57.917Z,10.07
2023-10-03T12:29:00.856Z,8.70
2023-10-03T12:33:02.673Z,8.63
2023-10-03T12:37:04.357Z,8.73
2023-10-03T12:41:05.908Z,8.00
2023-10-03T12:45:10.298Z,8.60
2023-10-03T12:49:11.833Z,7.97
2023-10-03T12:53:13.349Z,8.80
2023-10-03T12:57:15.101Z,8.48
2023-10-03T13:01:18.188Z,7.05
2023-10-03T13:05:20.441Z,7.00
2023-10-03T13:09:22.033Z,7.15
2023-10-03T13:13:23.558Z,8.20
2023-10-03T13:17:26.471Z,7.72
2023-10-03T13:21:28.125Z,6.80
2023-10-03T13:25:29.650Z,7.75
2023-10-03T13:29:31.181Z,7.13
2023-10-03T13:33:34.118Z,6.82
2023-10-03T13:37:35.712Z,4.75
2023-10-03T13:41:37.428Z,6.88
2023-10-03T13:45:38.969Z,7.23
2023-10-03T13:49:41.870Z,7.88
2023-10-03T13:53:43.415Z,7.75
2023-10-03T13:57:44.937Z,6.50
2023-10-03T14:01:46.572Z,7.68
2023-10-03T14:05:49.644Z,7.13
2023-10-03T14:09:51.240Z,6.70
2023-10-03T14:13:54.142Z,5.80
2023-10-03T14:17:55.805Z,6.63
2023-10-03T14:21:58.478Z,5.97
2023-10-03T14:30:03.663Z,6.18
2023-10-03T14:34:05.480Z,4.88
2023-10-03T14:38:07.043Z,6.57
2023-10-03T14:42:09.967Z,6.38
2023-10-03T14:46:11.718Z,5.95
2023-10-03T14:50:13.346Z,6.40
2023-10-03T14:54:16.362Z,6.65
2023-10-03T14:58:19.320Z,6.68
2023-10-03T15:02:20.875Z,6.03
2023-10-03T15:06:22.535Z,5.78
2023-10-03T15:10:24.081Z,6.45
2023-10-03T15:14:27.537Z,4.22
2023-10-03T15:18:30.910Z,6.18
2023-10-03T15:22:32.592Z,5.53
2023-10-03T15:30:44.019Z,5.80
2023-10-03T15:34:45.573Z,5.90
2023-10-03T15:38:47.125Z,5.60
2023-10-03T15:42:48.644Z,6.70
2023-10-03T15:46:51.539Z,5.95
2023-10-03T15:50:53.063Z,5.72
2023-10-03T15:54:54.870Z,5.65
2023-10-03T15:58:56.394Z,6.00
2023-10-03T16:03:00.179Z,5.20
2023-10-03T16:07:01.745Z,7.05
2023-10-03T16:11:03.906Z,6.38
2023-10-03T16:15:06.500Z,7.32
2023-10-03T16:23:10.997Z,6.90
2023-10-03T16:27:13.035Z,6.03
2023-10-03T16:31:15.042Z,6.93
2023-10-03T16:35:18.185Z,10.85
2023-10-03T16:39:19.899Z,18.73
2023-10-03T16:43:21.642Z,8.57
2023-10-03T16:47:23.310Z,7.80
2023-10-03T16:51:26.247Z,7.55
2023-10-03T16:55:27.893Z,7.25
2023-10-03T16:59:29.548Z,6.75
2023-10-03T17:03:31.354Z,7.13
2023-10-03T17:07:34.544Z,6.47
2023-10-03T17:11:36.174Z,6.78
2023-10-03T17:15:37.695Z,7.03
2023-10-03T17:19:39.234Z,6.43
2023-10-03T17:23:42.177Z,6.97
2023-10-03T17:27:43.929Z,6.22
2023-10-03T17:31:45.455Z,6.53
2023-10-03T17:35:47.018Z,6.70
2023-10-03T17:39:50.050Z,5.47
2023-10-03T17:43:51.768Z,7.18
2023-10-03T17:47:53.622Z,6.28
2023-10-03T17:51:55.337Z,6.20
2023-10-03T17:55:58.234Z,4.65
2023-10-03T18:00:06.662Z,3.10
2023-10-03T18:04:09.022Z,2.75
2023-10-03T18:08:10.889Z,2.47
2023-10-03T18:12:13.906Z,3.17
2023-10-03T18:16:15.530Z,3.13
2023-10-03T18:20:18.281Z,3.17
2023-10-03T18:24:20.027Z,2.50
2023-10-03T18:28:22.942Z,2.55
2023-10-03T18:36:26.095Z,1.48
2023-10-03T18:40:27.658Z,1.55
2023-10-03T18:44:30.567Z,1.70
2023-10-03T18:48:32.155Z,2.15
2023-10-03T18:52:35.500Z,2.28
2023-10-03T18:56:37.096Z,1.80
2023-10-03T19:00:40.053Z,1.30
2023-10-03T19:04:41.635Z,1.20
2023-10-03T19:08:43.212Z,1.90
2023-10-03T19:12:44.744Z,2.03
2023-10-03T19:16:47.818Z,1.52
2023-10-03T19:24:51.047Z,1.42
2023-10-03T19:28:52.658Z,1.48
2023-10-03T19:32:55.650Z,1.20
2023-10-03T19:40:58.759Z,1.33
2023-10-03T19:45:00.554Z,1.63
2023-10-03T19:49:03.665Z,1.70
2023-10-03T19:53:05.472Z,1.95
2023-10-03T19:57:07.059Z,1.73
2023-10-03T20:01:08.665Z,1.65
2023-10-03T20:05:12.041Z,2.30
2023-10-03T20:09:13.591Z,1.88
2023-10-03T20:13:15.168Z,2.20
2023-10-03T20:17:16.757Z,1.50
2023-10-03T20:21:19.817Z,2.55
2023-10-03T20:29:22.746Z,2.22
2023-10-03T20:33:24.541Z,2.20
2023-10-03T20:37:27.516Z,2.70
2023-10-03T20:41:29.039Z,2.45
2023-10-03T20:45:30.571Z,2.65
2023-10-03T20:49:32.117Z,2.30
2023-10-03T20:53:35.197Z,2.10
2023-10-03T21:01:38.210Z,2.45
2023-10-03T21:05:40.678Z,2.67
2023-10-03T21:09:43.730Z,2.92
2023-10-03T21:13:45.250Z,2.35
2023-10-03T21:17:46.823Z,2.67
2023-10-03T21:21:48.511Z,2.92
2023-10-03T21:25:51.378Z,3.20
2023-10-03T21:29:52.995Z,3.35
2023-10-03T21:33:54.562Z,3.72
2023-10-03T21:37:56.441Z,3.15
2023-10-03T21:41:59.339Z,2.97
2023-10-03T21:46:01.029Z,3.33
2023-10-03T21:50:02.612Z,2.63
2023-10-03T21:54:04.457Z,2.80
2023-10-03T21:58:07.340Z,3.03
2023-10-03T22:02:08.885Z,3.20
2023-10-03T22:06:10.656Z,2.80
2023-10-03T22:10:12.196Z,2.92
2023-10-03T22:14:15.709Z,2.38
2023-10-03T22:18:17.420Z,2.72
2023-10-03T22:22:19.057Z,2.85
2023-10-03T22:26:20.803Z,2.80
2023-10-03T22:30:23.652Z,2.10
2023-10-03T22:34:25.160Z,2.22
2023-10-03T22:38:26.662Z,2.63
2023-10-03T22:42:28.262Z,2.97
2023-10-03T22:46:31.319Z,2.10
2023-10-03T22:54:34.321Z,2.60
2023-10-03T22:58:35.858Z,2.63
2023-10-03T23:02:38.745Z,2.47
2023-10-03T23:06:40.313Z,2.42
2023-10-03T23:10:41.885Z,2.78
2023-10-03T23:14:43.430Z,2.13
2023-10-03T23:18:46.350Z,2.38
2023-10-03T23:22:47.956Z,2.80
2023-10-03T23:26:49.488Z,3.00
2023-10-03T23:30:51.023Z,2.58
2023-10-03T23:34:53.900Z,3.05
2023-10-03T23:38:55.469Z,2.85
2023-10-03T23:42:57.014Z,2.80
2023-10-03T23:46:58.534Z,2.72
2023-10-03T23:51:01.430Z,3.03
2023-10-03T23:55:03.530Z,2.47
2023-10-03T23:59:05.454Z,2.50
